createdAt,value
2019-05-07T11:41:22.902Z,16.70
2019-05-07T11:42:22.119Z,17.79
2019-05-07T11:43:22.281Z,18.08
2019-05-07T11:44:23.014Z,18.17
2019-05-07T11:45:22.744Z,17.88
2019-05-07T11:46:22.260Z,17.88
2019-05-07T11:47:22.518Z,18.38
2019-05-07T11:48:22.159Z,18.48
2019-05-07T11:49:22.715Z,18.87
2019-05-07T11:50:22.592Z,18.80
2019-05-07T11:51:23.128Z,19.81
2019-05-07T11:52:22.838Z,19.31
2019-05-07T11:53:22.104Z,19.70
2019-05-07T11:54:21.904Z,19.50
2019-05-07T11:55:22.412Z,19.60
2019-05-07T11:56:22.028Z,20.11
2019-05-07T11:57:22.192Z,20.71
2019-05-07T11:58:22.088Z,20.53
2019-05-07T11:59:22.077Z,19.95
2019-05-07T12:00:21.959Z,20.76
2019-05-07T12:01:22.438Z,21.37
2019-05-07T12:02:22.683Z,21.28
2019-05-07T12:03:22.155Z,21.38
2019-05-07T12:04:21.797Z,21.78
2019-05-07T12:05:22.718Z,22.59
2019-05-07T12:06:21.782Z,22.30
2019-05-07T12:07:22.322Z,21.61
2019-05-07T12:08:22.428Z,22.71
2019-05-07T12:09:22.760Z,21.89
2019-05-07T12:10:22.250Z,22.36
2019-05-07T12:11:21.915Z,21.85
2019-05-07T12:12:22.261Z,21.53
2019-05-07T12:13:21.933Z,20.53
2019-05-07T12:14:30.860Z,20.22
2019-05-07T12:15:46.150Z,20.33
2019-05-07T12:16:46.142Z,19.86
2019-05-07T12:17:46.132Z,20.06
2019-05-07T12:18:46.120Z,20.77
2019-05-07T12:19:46.108Z,20.68
2019-05-07T12:20:46.103Z,20.99
2019-05-07T12:21:46.086Z,21.41
2019-05-07T12:22:46.074Z,21.42
2019-05-07T12:23:46.068Z,20.82
2019-05-07T12:24:46.051Z,21.83
2019-05-07T12:25:46.044Z,22.41
2019-05-07T12:26:46.039Z,22.22
2019-05-07T12:27:46.019Z,22.19
2019-05-07T12:28:46.009Z,21.09
2019-05-07T12:29:45.997Z,21.99
2019-05-07T12:30:45.989Z,22.47
2019-05-07T12:31:45.974Z,21.37
2019-05-07T12:32:45.965Z,20.46
2019-05-07T12:33:45.954Z,20.86
2019-05-07T12:34:45.947Z,20.36
2019-05-07T12:35:45.931Z,20.56
2019-05-07T12:36:45.920Z,20.55
2019-05-07T12:37:49.313Z,20.65
2019-05-07T12:38:45.899Z,20.46
2019-05-07T12:39:45.889Z,19.18
2019-05-07T12:40:45.876Z,20.30
2019-05-07T12:41:45.867Z,20.51
2019-05-07T12:42:45.858Z,20.72
2019-05-07T12:43:45.842Z,21.42
2019-05-07T12:44:45.832Z,21.12
2019-05-07T12:45:45.825Z,21.83
2019-05-07T12:46:45.811Z,21.84
2019-05-07T12:47:45.801Z,21.15
2019-05-07T12:48:45.789Z,22.25
2019-05-07T12:49:45.779Z,22.25
2019-05-07T12:50:45.773Z,22.45
2019-05-07T12:51:45.761Z,22.55
2019-05-07T12:52:45.747Z,22.45
2019-05-07T12:53:45.737Z,22.56
2019-05-07T12:54:45.725Z,22.36
2019-05-07T12:55:45.718Z,22.46
2019-05-07T12:56:45.710Z,22.26
2019-05-07T12:57:45.691Z,22.05
2019-05-07T12:58:45.684Z,22.25
2019-05-07T12:59:45.673Z,22.85
2019-05-07T13:00:45.666Z,23.24
2019-05-07T13:01:45.651Z,22.94
2019-05-07T13:02:45.637Z,22.55
2019-05-07T13:03:45.626Z,22.67
2019-05-07T13:04:45.614Z,23.07
2019-05-07T13:05:45.605Z,23.48
2019-05-07T13:06:45.595Z,23.29
2019-05-07T13:07:45.584Z,22.29
2019-05-07T13:08:45.573Z,23.49
2019-05-07T13:09:45.561Z,22.60
2019-05-07T13:10:45.549Z,22.80
2019-05-07T13:11:45.538Z,23.40
2019-05-07T13:12:45.533Z,23.70
2019-05-07T13:13:45.521Z,23.70
2019-05-07T13:14:45.502Z,23.50
2019-05-07T13:15:45.493Z,23.40
2019-05-07T13:16:45.481Z,23.20
2019-05-07T13:17:45.471Z,23.91
2019-05-07T13:18:45.459Z,23.51
2019-05-07T13:19:45.448Z,23.52
2019-05-07T13:20:45.436Z,23.62
2019-05-07T13:21:49.283Z,23.43
2019-05-07T13:22:45.413Z,24.62
2019-05-07T13:23:45.411Z,24.53
2019-05-07T13:24:45.394Z,23.74
2019-05-07T13:25:45.382Z,24.44
2019-05-07T13:26:45.371Z,24.34
2019-05-07T13:27:45.363Z,24.54
2019-05-07T13:28:45.349Z,24.54
2019-05-07T13:29:45.341Z,25.14
2019-05-07T13:30:45.328Z,25.12
2019-05-07T13:31:45.314Z,24.32
2019-05-07T13:32:48.112Z,24.62
2019-05-07T13:33:45.307Z,25.03
2019-05-07T13:34:45.284Z,25.12
2019-05-07T13:35:45.276Z,25.03
2019-05-07T13:36:45.259Z,24.43
2019-05-07T13:37:46.455Z,24.53
2019-05-07T13:38:45.242Z,23.73
2019-05-07T13:39:45.235Z,23.76
2019-05-07T13:40:45.219Z,24.18
2019-05-07T13:41:45.219Z,24.60
2019-05-07T13:42:45.238Z,25.11
2019-05-07T13:43:45.228Z,24.40
2019-05-07T13:44:45.177Z,24.60
2019-05-07T13:45:45.178Z,23.48
2019-05-07T13:46:45.176Z,23.78
2019-05-07T13:47:45.179Z,23.07
2019-05-07T13:48:47.042Z,23.16
2019-05-07T13:49:45.115Z,22.65
2019-05-07T13:50:45.112Z,22.25
2019-05-07T13:51:45.093Z,22.16
2019-05-07T13:52:45.082Z,21.96
2019-05-07T13:53:45.073Z,20.97
2019-05-07T13:54:45.060Z,23.00
2019-05-07T13:55:45.058Z,23.60
2019-05-07T13:56:45.041Z,23.50
2019-05-07T13:57:45.032Z,21.28
2019-05-07T13:58:45.016Z,21.18
2019-05-07T13:59:45.008Z,21.28
2019-05-07T14:00:44.997Z,21.38
2019-05-07T14:01:44.992Z,21.58
2019-05-07T14:02:44.988Z,21.08
2019-05-07T14:03:44.966Z,21.08
2019-05-07T14:04:44.955Z,21.18
2019-05-07T14:05:44.940Z,21.48
2019-05-07T14:06:44.932Z,21.18
2019-05-07T14:07:44.928Z,21.68
2019-05-07T14:08:44.916Z,22.60
2019-05-07T14:09:44.899Z,21.80
2019-05-07T14:10:44.886Z,22.70
2019-05-07T14:11:44.877Z,22.99
2019-05-07T14:12:44.871Z,23.09
2019-05-07T14:13:44.858Z,23.19
2019-05-07T14:14:44.846Z,23.58
2019-05-07T14:15:44.834Z,23.88
2019-05-07T14:16:45.198Z,24.08
2019-05-07T14:17:44.826Z,23.38
2019-05-07T14:18:44.800Z,24.28
2019-05-07T14:19:44.795Z,23.97
2019-05-07T14:20:44.780Z,23.78
2019-05-07T14:21:44.772Z,24.18
2019-05-07T14:22:44.760Z,23.68
2019-05-07T14:23:44.747Z,23.68
2019-05-07T14:24:44.734Z,23.88
2019-05-07T14:25:44.724Z,24.20
2019-05-07T14:26:44.711Z,25.21
2019-05-07T14:27:44.703Z,24.60
2019-05-07T14:28:44.689Z,24.90
2019-05-07T14:29:44.691Z,24.60
2019-05-07T14:30:44.670Z,23.99
2019-05-07T14:31:44.661Z,23.78
2019-05-07T14:32:44.646Z,23.58
2019-05-07T14:33:44.634Z,23.88
2019-05-07T14:34:44.627Z,24.59
2019-05-07T14:35:44.612Z,24.18
2019-05-07T14:36:44.603Z,24.48
2019-05-07T14:37:44.595Z,24.68
2019-05-07T14:38:44.578Z,24.49
2019-05-07T14:39:44.572Z,24.60
2019-05-07T14:40:44.557Z,25.39
2019-05-07T14:41:44.547Z,24.09
2019-05-07T14:42:44.541Z,23.98
2019-05-07T14:43:44.526Z,24.28
2019-05-07T14:44:44.517Z,22.58
2019-05-07T14:46:50.840Z,23.31
2019-05-07T14:48:08.958Z,23.62
2019-05-07T14:49:08.949Z,24.53
2019-05-07T14:50:08.991Z,24.63
2019-05-07T14:51:08.930Z,24.64
2019-05-07T14:52:08.915Z,24.65
2019-05-07T14:53:08.912Z,24.96
2019-05-07T14:54:08.915Z,24.64
2019-05-07T14:55:08.880Z,25.04
2019-05-07T14:56:08.869Z,24.95
2019-05-07T14:57:08.867Z,24.95
2019-05-07T14:58:08.849Z,24.95
2019-05-07T14:59:08.845Z,24.95
2019-05-07T15:00:08.825Z,25.06
2019-05-07T15:01:08.815Z,25.35
2019-05-07T15:02:08.805Z,25.75
2019-05-07T15:03:08.794Z,24.95
2019-05-07T15:05:08.774Z,25.14
2019-05-07T15:06:08.760Z,24.82
2019-05-07T15:07:08.748Z,24.82
2019-05-07T15:08:11.735Z,24.42
2019-05-07T15:09:08.726Z,25.02
2019-05-07T15:10:08.715Z,25.42
2019-05-07T15:11:08.709Z,24.72
2019-05-07T15:12:11.419Z,25.12
2019-05-07T15:13:08.684Z,25.11
2019-05-07T15:14:08.671Z,23.50
2019-05-07T15:15:08.667Z,24.51
2019-05-07T15:16:08.650Z,23.82
2019-05-07T15:17:08.639Z,24.21
2019-05-07T15:18:08.628Z,23.51
2019-05-07T15:19:08.619Z,24.92
2019-05-07T15:20:08.606Z,24.60
2019-05-07T15:21:08.602Z,24.31
2019-05-07T15:22:08.587Z,24.51
2019-05-07T15:23:08.574Z,23.40
2019-05-07T15:24:08.561Z,24.01
2019-05-07T15:25:08.558Z,23.82
2019-05-07T15:26:08.543Z,23.70
2019-05-07T15:27:08.534Z,23.71
2019-05-07T15:28:08.518Z,24.60
2019-05-07T15:29:08.507Z,24.72
2019-05-07T15:30:08.495Z,24.43
2019-05-07T15:31:08.492Z,24.52
2019-05-07T15:32:08.474Z,24.92
2019-05-07T15:33:08.468Z,24.63
2019-05-07T15:34:08.451Z,25.22
2019-05-07T15:35:08.440Z,24.62
2019-05-07T15:36:08.430Z,24.42
2019-05-07T15:37:08.418Z,25.14
2019-05-07T15:38:08.410Z,25.03
2019-05-07T15:39:08.395Z,24.92
2019-05-07T15:40:08.384Z,25.12
2019-05-07T15:41:08.373Z,25.22
2019-05-07T15:42:08.360Z,24.82
2019-05-07T15:43:08.358Z,25.02
2019-05-07T15:44:08.347Z,24.96
2019-05-07T15:45:08.384Z,25.70
2019-05-07T15:46:08.344Z,26.83
2019-05-07T15:48:08.292Z,26.82
2019-05-07T15:49:08.281Z,26.70
2019-05-07T15:50:08.281Z,26.70
2019-05-07T15:51:08.258Z,25.42
2019-05-07T15:52:08.248Z,27.33
2019-05-07T15:53:08.244Z,26.73
2019-05-07T15:54:08.225Z,27.25
2019-05-07T15:55:08.215Z,27.07
2019-05-07T15:56:08.205Z,27.60
2019-05-07T15:57:08.195Z,28.13
2019-05-07T15:58:08.182Z,28.03
2019-05-07T15:59:08.169Z,29.35
2019-05-07T16:01:08.162Z,28.82
2019-05-07T16:03:08.148Z,28.11
2019-05-07T16:04:19.090Z,28.30
2019-05-07T16:05:32.585Z,27.78
2019-05-07T16:06:32.567Z,27.77
2019-05-07T16:07:32.836Z,28.07
2019-05-07T16:08:32.547Z,27.96
2019-05-07T16:09:32.718Z,27.85
2019-05-07T16:10:32.528Z,27.84
2019-05-07T16:11:32.643Z,28.04
2019-05-07T16:12:32.502Z,27.84
2019-05-07T16:13:32.785Z,27.94
2019-05-07T16:14:32.487Z,27.44
2019-05-07T16:15:32.469Z,28.14
2019-05-07T16:16:33.338Z,26.72
2019-05-07T16:17:32.841Z,27.72
2019-05-07T16:18:32.757Z,27.92
2019-05-07T16:19:32.420Z,26.72
2019-05-07T16:20:32.708Z,27.42
2019-05-07T16:21:32.673Z,26.92
2019-05-07T16:22:32.799Z,26.82
2019-05-07T16:23:32.697Z,27.41
2019-05-07T16:24:32.365Z,26.81
2019-05-07T16:25:32.812Z,26.92
2019-05-07T16:26:32.766Z,26.72
2019-05-07T16:27:32.330Z,27.02
2019-05-07T16:28:32.506Z,26.72
2019-05-07T16:29:35.606Z,26.72
2019-05-07T16:30:32.536Z,26.72
2019-05-07T16:31:33.220Z,26.92
2019-05-07T16:32:32.850Z,26.91
2019-05-07T16:33:34.732Z,26.72
2019-05-07T16:34:32.676Z,27.22
2019-05-07T16:35:32.301Z,26.81
2019-05-07T16:36:32.932Z,27.01
2019-05-07T16:37:32.348Z,26.81
2019-05-07T16:38:32.798Z,27.21
2019-05-07T16:39:32.684Z,26.72
2019-05-07T16:40:32.467Z,27.12
2019-05-07T16:41:32.175Z,27.02
2019-05-07T16:42:32.296Z,27.13
2019-05-07T16:43:32.160Z,28.04
2019-05-07T16:44:33.110Z,26.72
2019-05-07T16:45:32.136Z,26.92
2019-05-07T16:46:32.126Z,27.03
2019-05-07T16:47:32.116Z,27.54
2019-05-07T16:48:32.700Z,27.84
2019-05-07T16:49:32.088Z,27.54
2019-05-07T16:50:32.738Z,28.04
2019-05-07T16:51:33.052Z,27.84
2019-05-07T16:52:34.913Z,27.94
2019-05-07T16:53:35.047Z,28.14
2019-05-07T16:54:32.033Z,27.55
2019-05-07T16:55:32.768Z,27.75
2019-05-07T16:56:33.322Z,27.94
2019-05-07T16:57:33.687Z,27.64
2019-05-07T16:58:34.869Z,27.54
2019-05-07T16:59:32.525Z,27.65
2019-05-07T17:00:31.999Z,27.64
2019-05-07T17:01:32.532Z,27.84
2019-05-07T17:02:33.880Z,27.74
2019-05-07T17:03:32.006Z,27.54
2019-05-07T17:04:32.068Z,27.84
2019-05-07T17:05:32.172Z,27.96
2019-05-07T17:06:32.253Z,27.85
2019-05-07T17:07:32.197Z,27.85
2019-05-07T17:08:32.083Z,27.96
2019-05-07T17:09:32.308Z,27.85
2019-05-07T17:10:31.994Z,27.97
2019-05-07T17:11:32.197Z,28.07
2019-05-07T17:13:32.026Z,27.77
2019-05-07T17:14:31.817Z,28.37
2019-05-07T17:15:31.797Z,28.37
2019-05-07T17:16:31.922Z,27.77
2019-05-07T17:17:32.234Z,27.86
2019-05-07T17:18:32.574Z,27.97
2019-05-07T17:19:32.049Z,27.86
2019-05-07T17:20:32.785Z,27.77
2019-05-07T17:21:32.494Z,28.18
2019-05-07T17:22:32.265Z,28.08
2019-05-07T17:23:43.669Z,28.49
2019-05-07T17:24:33.064Z,27.67
2019-05-07T17:25:33.383Z,27.78
2019-05-07T17:26:31.672Z,27.58
2019-05-07T17:27:32.110Z,28.69
2019-05-07T17:28:32.051Z,27.67
2019-05-07T17:30:32.073Z,27.78
2019-05-07T17:31:31.912Z,27.88
2019-05-07T17:32:32.122Z,27.98
2019-05-07T17:33:32.096Z,27.58
2019-05-07T17:34:31.589Z,27.79
2019-05-07T17:35:34.181Z,28.40
2019-05-07T17:36:33.041Z,27.59
2019-05-07T17:37:31.554Z,28.60
2019-05-07T17:38:32.213Z,28.50
2019-05-07T17:39:32.152Z,28.70
2019-05-07T17:40:32.129Z,28.10
2019-05-07T17:41:32.211Z,28.92
2019-05-07T17:42:32.869Z,28.41
2019-05-07T17:43:32.473Z,28.11
2019-05-07T17:44:32.321Z,29.02
2019-05-07T17:45:32.832Z,28.21
2019-05-07T17:46:32.381Z,28.11
2019-05-07T17:47:32.217Z,28.41
2019-05-07T17:48:32.620Z,29.22
2019-05-07T17:49:32.809Z,28.82
2019-05-07T17:50:32.295Z,29.02
2019-05-07T17:51:32.362Z,28.92
2019-05-07T17:52:32.378Z,28.61
2019-05-07T17:53:32.060Z,29.02
2019-05-07T17:54:31.829Z,28.92
2019-05-07T17:55:33.194Z,28.93
2019-05-07T17:56:32.041Z,29.03
2019-05-07T17:57:33.354Z,29.12
2019-05-07T17:58:32.599Z,28.92
2019-05-07T17:59:32.078Z,29.12
2019-05-07T18:00:32.830Z,29.13
2019-05-07T18:01:32.709Z,29.03
2019-05-07T18:02:32.686Z,29.64
2019-05-07T18:03:32.298Z,29.54
2019-05-07T18:04:33.785Z,29.24
2019-05-07T18:05:55.711Z,29.24
2019-05-07T18:06:55.707Z,29.55
2019-05-07T18:07:55.688Z,29.33
2019-05-07T18:08:55.676Z,29.35
2019-05-07T18:09:55.662Z,29.76
2019-05-07T18:10:55.653Z,30.67
2019-05-07T18:11:55.641Z,29.85
2019-05-07T18:12:55.635Z,30.27
2019-05-07T18:13:55.620Z,30.68
2019-05-07T18:14:55.608Z,30.58
2019-05-07T18:15:55.596Z,29.97
2019-05-07T18:16:55.580Z,30.27
2019-05-07T18:17:55.571Z,30.48
2019-05-07T18:18:55.564Z,30.48
2019-05-07T18:19:55.550Z,30.70
2019-05-07T18:20:55.535Z,30.88
2019-05-07T18:21:55.526Z,30.39
2019-05-07T18:22:55.520Z,30.29
2019-05-07T18:23:55.503Z,30.49
2019-05-07T18:24:55.493Z,30.29
2019-05-07T18:25:55.482Z,30.49
2019-05-07T18:26:55.465Z,30.59
2019-05-07T18:27:55.457Z,30.49
2019-05-07T18:28:55.442Z,31.00
2019-05-07T18:29:55.433Z,30.49
2019-05-07T18:30:55.423Z,30.90
2019-05-07T18:31:55.410Z,30.09
2019-05-07T18:32:55.397Z,31.00
2019-05-07T18:33:55.397Z,31.32
2019-05-07T18:34:55.381Z,31.42
2019-05-07T18:35:55.363Z,31.21
2019-05-07T18:36:55.352Z,31.21
2019-05-07T18:37:55.346Z,31.12
2019-05-07T18:38:55.342Z,31.52
2019-05-07T18:39:55.327Z,31.52
2019-05-07T18:40:55.310Z,31.62
2019-05-07T18:41:55.299Z,31.72
2019-05-07T18:42:55.287Z,31.53
2019-05-07T18:44:08.114Z,31.43
2019-05-07T18:44:56.285Z,31.53
2019-05-07T18:45:55.249Z,31.45
2019-05-07T18:46:55.240Z,31.23
2019-05-07T18:47:55.234Z,31.53
2019-05-07T18:48:55.218Z,30.94
2019-05-07T18:51:55.192Z,30.93
2019-05-07T18:52:55.175Z,30.94
2019-05-07T18:53:55.161Z,31.33
2019-05-07T18:54:55.154Z,31.43
2019-05-07T18:55:55.148Z,31.95
2019-05-07T18:56:55.134Z,31.45
2019-05-07T18:57:55.117Z,31.25
2019-05-07T18:59:55.093Z,31.65
2019-05-07T19:00:55.079Z,31.65
2019-05-07T19:01:55.074Z,31.86
2019-05-07T19:02:55.059Z,31.65
2019-05-07T19:03:55.049Z,31.77
2019-05-07T19:06:55.017Z,32.98
2019-05-07T19:08:04.621Z,32.68
2019-05-07T19:09:19.469Z,32.68
2019-05-07T19:10:19.458Z,32.98
2019-05-07T19:11:19.444Z,32.89
2019-05-07T19:13:19.425Z,32.58
2019-05-07T19:14:19.414Z,32.68
2019-05-07T19:15:19.408Z,33.19
2019-05-07T19:17:21.746Z,32.89
2019-05-07T19:18:19.371Z,32.78
2019-05-07T19:19:19.356Z,32.48
2019-05-07T19:20:21.665Z,32.68
2019-05-07T19:21:19.336Z,32.17
2019-05-07T22:07:41.918Z,42.97
